メインページ
METAR-TAF:

METAR-TAF

空港 :

ウタパオ国際空港

パッタヤー-Rayong, タイ

緯度: 12-38N, 経度: 101-21E, 海抜: 3m

現時点の気象観測

当レポートは41分前の11:30(UTC)に作成
南西の風 6kt
気温 30°C
湿度 75%
気圧 1007 hPa
視程10km以上
高度2000ftの雲はほとんどない
高度10000ftの雲は散在している

METAR: VTBU 201130Z 22006KT 9999 FEW020 SCT100 30/25 Q1007 NOSIG

時間: 19:11 (12:11 UTC)

予報

当レポートは1時間11分前の11:00(UTC)に作成
予報は20日の 12時(UTC)から 21日の 12時(UTC)まで有効
南西の風 6kt
視程10km以上
高度2000ftの雲はほとんどない
高度10000ftの雲は散在している

TAF: VTBU 201100Z 2012/2112 23006KT 9999 FEW020 SCT100

4,000以上の空港の気象観測と天気予報(METAR報とTAF報)

利用可能な観測所は地図上に黄色い丸と赤い丸で示す。

丸の上にカーソルを重ねると観測所名を参照できる。

次にクリックすると気象観測と天気予報を参照できる。

マップの切り替え:黒色「×」印の緑ボタンをクリックして拡大、「-」印の緑ボタンをクリックして縮小、緑色の三角印をクリックして隣りの地図に切り替え


METAR-TAF: